Time;durP1;ratioP1;P1;durP2;ratioP2;P2;SDS_P1;SDS_P2;PMS_P1;PMS_P2;Temp;Humidity;BMP_temperature;BMP_pressure;BME280_temperature;BME280_humidity;BME280_pressure;Samples;Min_cycle;Max_cycle;Signal;HPM_P1;HPM_P2
2022/01/27 00:00:56;;;;;;;;;;;;;;;;;;4973729;28;20358;-51
2022/01/27 00:03:27;;;;;;;;;;;;;;;;;;;;;
2022/01/27 00:05:56;;;;;;;;;;;;;;;;;;4974552;28;19918;-50
2022/01/27 00:09:11;;;;;;;;;;;;;;;;;;4955935;29;20365;-50
2022/01/27 00:11:13;;;;;;;;;;;;;;;;;;4947973;29;19907;-49
2022/01/27 00:13:47;;;;;;;;;;;;;;;;;;4956295;28;19910;-49
2022/01/27 00:16:18;;;;;;;;;;;;;;;;;;4959132;29;19978;-48
2022/01/27 00:18:43;;;;;;;;;;;;;;;;;;4960512;28;19910;-48
2022/01/27 00:21:08;;;;;;;;;;;;;;;;;;4979067;28;19912;-48
2022/01/27 00:23:33;;;;;;;;;;;;;;;;;;4978815;28;19913;-49
2022/01/27 00:25:58;;;;;;;;;;;;;;;;;;4978538;28;20121;-48
2022/01/27 00:28:23;;;;;;;;;;;;;;;;;;4978541;28;19945;-48
2022/01/27 00:30:48;;;;;;;;;;;;;;;;;;4978590;28;19985;-48
2022/01/27 00:33:13;;;;;;;;;;;;;;;;;;4969330;28;20009;-49
2022/01/27 00:35:39;;;;;;;;;;;;;;;;;;4958864;29;19936;-49
2022/01/27 00:38:04;;;;;;;;;;;;;;;;;;4959010;29;19907;-48
2022/01/27 00:40:29;;;;;;;;;;;;;;;;;;4972614;28;19952;-48
2022/01/27 00:42:54;;;;;;;;;;;;;;;;;;4978321;28;20437;-48
2022/01/27 00:45:19;;;;;;;;;;;;;;;;;;4977903;28;20008;-48
2022/01/27 00:47:44;;;;;;;;;;;;;;;;;;4978293;28;19910;-49
2022/01/27 00:50:10;;;;;;;;;;;;;;;;;;4978271;28;19973;-48
2022/01/27 00:52:46;;;;;;;;;;;;;;;;;;4978235;28;19913;-48
2022/01/27 00:55:12;;;;;;;;;;;;;;;;;;4978051;28;20285;-48
2022/01/27 01:00:49;;;;;;;;;;;;;;;;;;4973720;28;19977;-48
2022/01/27 01:03:24;;;;;;;;;;;;;;;;;;4957866;29;20352;-49
2022/01/27 01:06:09;;;;;;;;;;;;;;;;;;4960420;28;20436;-51
2022/01/27 01:09:31;;;;;;;;;;;;;;;;;;4958563;29;20362;-52
2022/01/27 01:19:45;;;;;;;;;;;;;;;;;;;;;
2022/01/27 01:30:09;;;;;;;;;;;;;;;;;;4977714;28;19914;-50
2022/01/27 01:35:10;;;;;;;;;;;;;;;;;;4976864;28;19918;-49
2022/01/27 01:37:38;;;;;;;;;;;;;;;;;;4977357;28;19961;-49
2022/01/27 01:40:03;;;;;;;;;;;;;;;;;;4977151;28;19906;-50
2022/01/27 01:42:31;;;;;;;;;;;;;;;;;;4977009;28;20005;-49
2022/01/27 01:44:56;;;;;;;;;;;;;;;;;;4977309;28;19913;-51
2022/01/27 01:47:21;;;;;;;;;;;;;;;;;;4976982;28;19910;-48
2022/01/27 01:49:46;;;;;;;;;;;;;;;;;;4977026;28;19910;-48
2022/01/27 01:52:11;;;;;;;;;;;;;;;;;;4977232;28;19906;-49
2022/01/27 01:54:36;;;;;;;;;;;;;;;;;;4977142;28;19917;-49
2022/01/27 01:57:02;;;;;;;;;;;;;;;;;;4976920;28;19906;-48
2022/01/27 01:59:27;;;;;;;;;;;;;;;;;;4977073;28;19906;-50
2022/01/27 02:01:52;;;;;;;;;;;;;;;;;;4976924;28;20340;-49
2022/01/27 02:04:17;;;;;;;;;;;;;;;;;;4973447;28;20262;-50
2022/01/27 02:06:48;;;;;;;;;;;;;;;;;;4956974;28;19922;-49
2022/01/27 02:09:22;;;;;;;;;;;;;;;;;;4957603;29;19914;-49
2022/01/27 02:19:59;;;;;;;;;;;;;;;;;;4957305;29;20278;-49
2022/01/27 02:22:24;;;;;;;;;;;;;;;;;;4956750;29;19914;-49
2022/01/27 02:24:50;;;;;;;;;;;;;;;;;;4957186;29;20266;-48
2022/01/27 02:27:15;;;;;;;;;;;;;;;;;;4960827;28;20009;-48
2022/01/27 02:29:41;;;;;;;;;;;;;;;;;;4976590;28;20004;-49
2022/01/27 02:32:06;;;;;;;;;;;;;;;;;;4976244;28;19997;-50
2022/01/27 02:34:31;;;;;;;;;;;;;;;;;;4976614;28;19906;-50
2022/01/27 02:36:56;;;;;;;;;;;;;;;;;;4975844;28;19910;-47
2022/01/27 02:39:21;;;;;;;;;;;;;;;;;;4975915;28;19910;-49
2022/01/27 02:41:46;;;;;;;;;;;;;;;;;;4976161;28;19917;-48
2022/01/27 02:44:11;;;;;;;;;;;;;;;;;;4976174;28;19906;-49
2022/01/27 02:46:36;;;;;;;;;;;;;;;;;;4975739;28;19914;-51
2022/01/27 02:49:02;;;;;;;;;;;;;;;;;;4976164;28;19910;-50
2022/01/27 02:51:27;;;;;;;;;;;;;;;;;;4976397;28;19913;-48
2022/01/27 02:53:52;;;;;;;;;;;;;;;;;;4976160;28;19945;-48
2022/01/27 02:56:18;;;;;;;;;;;;;;;;;;4975694;28;19949;-48
2022/01/27 02:58:43;;;;;;;;;;;;;;;;;;4975883;28;19917;-48
2022/01/27 03:01:10;;;;;;;;;;;;;;;;;;4975999;28;19997;-48
2022/01/27 03:03:35;;;;;;;;;;;;;;;;;;4975867;28;19906;-49
2022/01/27 03:06:00;;;;;;;;;;;;;;;;;;4979445;28;19920;-48
2022/01/27 03:08:25;;;;;;;;;;;;;;;;;;4995345;28;19906;-49
2022/01/27 03:10:50;;;;;;;;;;;;;;;;;;4995044;28;20410;-48
2022/01/27 03:13:15;;;;;;;;;;;;;;;;;;4995427;28;20001;-49
2022/01/27 03:15:41;;;;;;;;;;;;;;;;;;4995282;28;19906;-50
2022/01/27 03:18:06;;;;;;;;;;;;;;;;;;4995180;28;19913;-50
2022/01/27 03:20:34;;;;;;;;;;;;;;;;;;4995095;28;19906;-51
2022/01/27 03:23:00;;;;;;;;;;;;;;;;;;4994692;28;20481;-49
2022/01/27 03:25:25;;;;;;;;;;;;;;;;;;4994896;28;19949;-48
2022/01/27 03:27:50;;;;;;;;;;;;;;;;;;4995083;28;19905;-48
2022/01/27 03:30:17;;;;;;;;;;;;;;;;;;4994499;28;20012;-48
2022/01/27 03:32:42;;;;;;;;;;;;;;;;;;4994987;28;19909;-48
2022/01/27 03:35:07;;;;;;;;;;;;;;;;;;4994957;28;19909;-48
2022/01/27 03:37:32;;;;;;;;;;;;;;;;;;4994926;28;19905;-48
2022/01/27 03:39:57;;;;;;;;;;;;;;;;;;4994858;28;19914;-52
2022/01/27 03:42:24;;;;;;;;;;;;;;;;;;4994855;28;19906;-50
2022/01/27 03:44:49;;;;;;;;;;;;;;;;;;4994919;28;20364;-49
2022/01/27 03:47:14;;;;;;;;;;;;;;;;;;4982293;28;19914;-48
2022/01/27 03:49:39;;;;;;;;;;;;;;;;;;4977421;28;19910;-51
2022/01/27 03:52:04;;;;;;;;;;;;;;;;;;4979228;28;19903;-49
2022/01/27 03:54:32;;;;;;;;;;;;;;;;;;4978866;28;20473;-52
2022/01/27 03:56:58;;;;;;;;;;;;;;;;;;4979095;28;19910;-50
2022/01/27 03:59:23;;;;;;;;;;;;;;;;;;4979034;28;20416;-49
2022/01/27 04:01:48;;;;;;;;;;;;;;;;;;4979065;28;19909;-49
2022/01/27 04:04:14;;;;;;;;;;;;;;;;;;4978738;28;19975;-49
2022/01/27 04:06:40;;;;;;;;;;;;;;;;;;4969852;28;20005;-50
2022/01/27 04:09:06;;;;;;;;;;;;;;;;;;4959665;29;20006;-51
2022/01/27 04:11:31;;;;;;;;;;;;;;;;;;4959562;29;19942;-49
2022/01/27 04:13:56;;;;;;;;;;;;;;;;;;4959551;29;20024;-49
2022/01/27 04:16:21;;;;;;;;;;;;;;;;;;4959374;29;19915;-49
2022/01/27 04:18:46;;;;;;;;;;;;;;;;;;4959354;29;20005;-50
2022/01/27 04:21:11;;;;;;;;;;;;;;;;;;4959356;29;20352;-49
2022/01/27 04:23:36;;;;;;;;;;;;;;;;;;4959208;29;20483;-49
2022/01/27 04:26:03;;;;;;;;;;;;;;;;;;4959210;29;19957;-50
2022/01/27 04:28:31;;;;;;;;;;;;;;;;;;4959248;29;20350;-49
2022/01/27 04:30:59;;;;;;;;;;;;;;;;;;4958985;29;20258;-50
2022/01/27 04:33:27;;;;;;;;;;;;;;;;;;4959158;29;20289;-51
2022/01/27 04:35:56;;;;;;;;;;;;;;;;;;4959140;29;19907;-48
2022/01/27 04:41:15;;;;;;;;;;;;;;;;;;4899827;29;19918;-49
2022/01/27 04:43:48;;;;;;;;;;;;;;;;;;4899863;29;19911;-49
2022/01/27 04:46:23;;;;;;;;;;;;;;;;;;4918642;29;19911;-49
2022/01/27 04:48:53;;;;;;;;;;;;;;;;;;4918881;29;19907;-49
2022/01/27 04:51:21;;;;;;;;;;;;;;;;;;4918679;29;19907;-48
2022/01/27 04:54:02;;;;;;;;;;;;;;;;;;4918558;29;20001;-48
2022/01/27 04:56:29;;;;;;;;;;;;;;;;;;4918616;29;19907;-52
2022/01/27 04:58:59;;;;;;;;;;;;;;;;;;4918589;29;19963;-49
2022/01/27 05:01:32;;;;;;;;;;;;;;;;;;4918249;29;19999;-49
2022/01/27 05:04:02;;;;;;;;;;;;;;;;;;4903879;29;19921;-50
2022/01/27 05:06:27;;;;;;;;;;;;;;;;;;4906462;29;19954;-50
2022/01/27 05:08:53;;;;;;;;;;;;;;;;;;4918341;29;19938;-52
2022/01/27 05:11:27;;;;;;;;;;;;;;;;;;4918127;29;20278;-50
2022/01/27 05:13:57;;;;;;;;;;;;;;;;;;4918488;29;19998;-49
2022/01/27 05:16:22;;;;;;;;;;;;;;;;;;4918255;29;19907;-52
2022/01/27 05:18:47;;;;;;;;;;;;;;;;;;4963028;28;19977;-50
2022/01/27 05:21:12;;;;;;;;;;;;;;;;;;4977871;28;20393;-49
2022/01/27 05:23:38;;;;;;;;;;;;;;;;;;4977397;28;20390;-49
2022/01/27 05:26:03;;;;;;;;;;;;;;;;;;4977240;28;19925;-49
2022/01/27 05:28:28;;;;;;;;;;;;;;;;;;4977213;28;19914;-52
2022/01/27 05:30:53;;;;;;;;;;;;;;;;;;4977506;28;19913;-50
2022/01/27 05:33:18;;;;;;;;;;;;;;;;;;4977472;28;19913;-49
2022/01/27 05:35:45;;;;;;;;;;;;;;;;;;4977409;28;19941;-48
2022/01/27 05:38:11;;;;;;;;;;;;;;;;;;4977389;28;19913;-48
2022/01/27 05:40:36;;;;;;;;;;;;;;;;;;4976910;28;20350;-50
2022/01/27 05:43:01;;;;;;;;;;;;;;;;;;4977358;28;19989;-50
2022/01/27 05:45:26;;;;;;;;;;;;;;;;;;4977362;28;19906;-49
2022/01/27 05:47:51;;;;;;;;;;;;;;;;;;4977125;28;19910;-49
2022/01/27 05:50:16;;;;;;;;;;;;;;;;;;4977383;28;19907;-51
2022/01/27 05:52:41;;;;;;;;;;;;;;;;;;4977129;28;20262;-51
2022/01/27 05:55:06;;;;;;;;;;;;;;;;;;4976867;28;19917;-49
2022/01/27 05:57:31;;;;;;;;;;;;;;;;;;4977113;28;19992;-48
2022/01/27 05:59:57;;;;;;;;;;;;;;;;;;4976914;28;19956;-52
2022/01/27 06:02:22;;;;;;;;;;;;;;;;;;4979546;28;19916;-49
2022/01/27 06:04:47;;;;;;;;;;;;;;;;;;4980161;28;20324;-50
2022/01/27 06:07:13;;;;;;;;;;;;;;;;;;4976553;28;19968;-49
2022/01/27 06:09:38;;;;;;;;;;;;;;;;;;4976997;28;20380;-49
2022/01/27 06:12:04;;;;;;;;;;;;;;;;;;4985759;28;19909;-49
2022/01/27 06:14:29;;;;;;;;;;;;;;;;;;4996176;28;19906;-51
2022/01/27 06:16:54;;;;;;;;;;;;;;;;;;4996162;28;19912;-50
2022/01/27 06:19:19;;;;;;;;;;;;;;;;;;4996176;28;19913;-49
2022/01/27 06:21:45;;;;;;;;;;;;;;;;;;4996086;28;19906;-49
2022/01/27 06:24:10;;;;;;;;;;;;;;;;;;4995978;28;19905;-50
2022/01/27 06:26:35;;;;;;;;;;;;;;;;;;4984455;28;19980;-48
2022/01/27 06:29:00;;;;;;;;;;;;;;;;;;4994850;28;19905;-49
2022/01/27 06:31:25;;;;;;;;;;;;;;;;;;4981989;28;19920;-49
2022/01/27 06:33:52;;;;;;;;;;;;;;;;;;4974150;28;19953;-50
2022/01/27 06:36:17;;;;;;;;;;;;;;;;;;4972223;28;19910;-50
2022/01/27 06:38:42;;;;;;;;;;;;;;;;;;4971714;28;19916;-50
2022/01/27 06:41:07;;;;;;;;;;;;;;;;;;4965099;28;20421;-50
2022/01/27 06:43:32;;;;;;;;;;;;;;;;;;4964191;28;20348;-51
2022/01/27 06:45:57;;;;;;;;;;;;;;;;;;4970738;28;19918;-51
2022/01/27 06:48:23;;;;;;;;;;;;;;;;;;4963512;28;19914;-52
2022/01/27 06:50:53;;;;;;;;;;;;;;;;;;4969025;28;20052;-49
2022/01/27 06:53:18;;;;;;;;;;;;;;;;;;4967201;28;20392;-49
2022/01/27 06:55:43;;;;;;;;;;;;;;;;;;4965338;28;19918;-49
2022/01/27 06:58:08;;;;;;;;;;;;;;;;;;4957698;28;19918;-49
2022/01/27 07:00:34;;;;;;;;;;;;;;;;;;4964603;28;20293;-52
2022/01/27 07:02:59;;;;;;;;;;;;;;;;;;4956505;28;19917;-50
2022/01/27 07:05:24;;;;;;;;;;;;;;;;;;4960682;28;19910;-50
2022/01/27 07:07:49;;;;;;;;;;;;;;;;;;4950371;28;19926;-52
2022/01/27 07:10:14;;;;;;;;;;;;;;;;;;4958267;28;20045;-54
2022/01/27 07:12:39;;;;;;;;;;;;;;;;;;4949184;28;19965;-53
2022/01/27 07:15:04;;;;;;;;;;;;;;;;;;4930877;28;20351;-48
2022/01/27 07:17:29;;;;;;;;;;;;;;;;;;4891623;28;19970;-49
2022/01/27 07:19:55;;;;;;;;;;;;;;;;;;4892592;28;20019;-49
2022/01/27 07:22:20;;;;;;;;;;;;;;;;;;4890192;28;19997;-51
2022/01/27 07:24:45;;;;;;;;;;;;;;;;;;4813664;28;19971;-50
2022/01/27 07:27:10;;;;;;;;;;;;;;;;;;4765540;28;19928;-50
2022/01/27 07:29:35;;;;;;;;;;;;;;;;;;4696357;28;19934;-51
2022/01/27 07:32:01;;;;;;;;;;;;;;;;;;4744286;28;19922;-52
2022/01/27 07:34:26;;;;;;;;;;;;;;;;;;4761889;28;19918;-50
2022/01/27 07:36:56;;;;;;;;;;;;;;;;;;4821062;28;20471;-53
2022/01/27 07:39:21;;;;;;;;;;;;;;;;;;4831275;28;19918;-53
2022/01/27 07:41:46;;;;;;;;;;;;;;;;;;4879842;28;19968;-51
2022/01/27 07:44:16;;;;;;;;;;;;;;;;;;4861133;28;22675;-51
2022/01/27 07:46:41;;;;;;;;;;;;;;;;;;4867062;28;19929;-51
2022/01/27 07:49:06;;;;;;;;;;;;;;;;;;4846819;28;19926;-51
2022/01/27 07:51:31;;;;;;;;;;;;;;;;;;4906815;28;20056;-51
2022/01/27 07:53:56;;;;;;;;;;;;;;;;;;4860195;28;20467;-52
2022/01/27 07:56:21;;;;;;;;;;;;;;;;;;4874590;28;20570;-53
2022/01/27 07:58:47;;;;;;;;;;;;;;;;;;4854754;28;20012;-51
2022/01/27 08:01:12;;;;;;;;;;;;;;;;;;4839855;28;20393;-50
2022/01/27 08:03:37;;;;;;;;;;;;;;;;;;4843335;28;22489;-50
2022/01/27 08:06:02;;;;;;;;;;;;;;;;;;4844210;28;19926;-50
2022/01/27 08:08:27;;;;;;;;;;;;;;;;;;4822846;28;19918;-50
2022/01/27 08:10:52;;;;;;;;;;;;;;;;;;4837972;28;19918;-51
2022/01/27 08:13:20;;;;;;;;;;;;;;;;;;4831772;28;20057;-53
2022/01/27 08:15:45;;;;;;;;;;;;;;;;;;4818043;28;22649;-51
2022/01/27 08:18:11;;;;;;;;;;;;;;;;;;4682375;28;22449;-53
2022/01/27 08:20:37;;;;;;;;;;;;;;;;;;4714980;28;20465;-50
2022/01/27 08:23:03;;;;;;;;;;;;;;;;;;4731170;28;21750;-51
2022/01/27 08:25:28;;;;;;;;;;;;;;;;;;4775880;28;20507;-50
2022/01/27 08:27:56;;;;;;;;;;;;;;;;;;4787625;28;19926;-50
2022/01/27 08:30:24;;;;;;;;;;;;;;;;;;4820403;28;19918;-50
2022/01/27 08:32:57;;;;;;;;;;;;;;;;;;4772214;28;19918;-51
2022/01/27 08:35:22;;;;;;;;;;;;;;;;;;4809679;28;19917;-53
2022/01/27 08:37:47;;;;;;;;;;;;;;;;;;4836324;28;21531;-51
2022/01/27 08:40:14;;;;;;;;;;;;;;;;;;4821850;28;19922;-50
2022/01/27 08:42:40;;;;;;;;;;;;;;;;;;4830206;28;19918;-53
2022/01/27 08:45:05;;;;;;;;;;;;;;;;;;4831597;28;19918;-53
2022/01/27 08:47:31;;;;;;;;;;;;;;;;;;4815258;28;26456;-52
2022/01/27 08:49:56;;;;;;;;;;;;;;;;;;4824307;28;21894;-51
2022/01/27 08:52:21;;;;;;;;;;;;;;;;;;4844339;28;19918;-54
2022/01/27 08:54:46;;;;;;;;;;;;;;;;;;4823642;28;20080;-53
2022/01/27 08:57:12;;;;;;;;;;;;;;;;;;4816636;28;19918;-54
2022/01/27 08:59:38;;;;;;;;;;;;;;;;;;4800957;28;21897;-52
2022/01/27 09:02:03;;;;;;;;;;;;;;;;;;4827300;28;19918;-53
2022/01/27 09:04:28;;;;;;;;;;;;;;;;;;4822147;28;22110;-48
2022/01/27 09:09:49;;;;;;;;;;;;;;;;;;4769832;28;22884;-52
2022/01/27 09:12:16;;;;;;;;;;;;;;;;;;4807187;28;20558;-53
2022/01/27 09:14:42;;;;;;;;;;;;;;;;;;4841525;28;22236;-51
2022/01/27 09:17:07;;;;;;;;;;;;;;;;;;4849326;28;20472;-49
2022/01/27 09:19:37;;;;;;;;;;;;;;;;;;4845190;28;19918;-50
2022/01/27 09:22:07;;;;;;;;;;;;;;;;;;4835603;28;19918;-53
2022/01/27 09:24:38;;;;;;;;;;;;;;;;;;4836139;28;19944;-50
2022/01/27 09:27:03;;;;;;;;;;;;;;;;;;4798492;28;19922;-53
2022/01/27 09:29:29;;;;;;;;;;;;;;;;;;4737851;28;21481;-51
2022/01/27 09:31:55;;;;;;;;;;;;;;;;;;4650075;28;21372;-52
2022/01/27 09:34:20;;;;;;;;;;;;;;;;;;4704140;28;20602;-51
2022/01/27 09:36:46;;;;;;;;;;;;;;;;;;4718270;28;20460;-50
2022/01/27 09:39:11;;;;;;;;;;;;;;;;;;4774510;28;20755;-49
2022/01/27 09:41:37;;;;;;;;;;;;;;;;;;4811963;28;19917;-49
2022/01/27 09:44:02;;;;;;;;;;;;;;;;;;4839451;28;19956;-49
2022/01/27 09:46:28;;;;;;;;;;;;;;;;;;4837285;28;20044;-52
2022/01/27 09:48:54;;;;;;;;;;;;;;;;;;4840497;28;19968;-49
2022/01/27 09:53:44;;;;;;;;;;;;;;;;;;4824036;28;20754;-49
2022/01/27 09:56:09;;;;;;;;;;;;;;;;;;4862092;28;20994;-51
2022/01/27 09:58:34;;;;;;;;;;;;;;;;;;4832231;28;20010;-50
2022/01/27 10:00:59;;;;;;;;;;;;;;;;;;4798962;28;19973;-51
2022/01/27 10:03:28;;;;;;;;;;;;;;;;;;4818327;28;19966;-53
2022/01/27 10:05:53;;;;;;;;;;;;;;;;;;4807721;28;20032;-50
2022/01/27 10:08:19;;;;;;;;;;;;;;;;;;4773639;28;19925;-53
2022/01/27 10:10:45;;;;;;;;;;;;;;;;;;4767747;28;19957;-52
2022/01/27 10:13:11;;;;;;;;;;;;;;;;;;4749917;28;19922;-55
2022/01/27 10:15:36;;;;;;;;;;;;;;;;;;4738751;28;20029;-53
2022/01/27 10:18:01;;;;;;;;;;;;;;;;;;4687134;28;19918;-53
2022/01/27 10:20:26;;;;;;;;;;;;;;;;;;4661717;28;19955;-50
2022/01/27 10:22:51;;;;;;;;;;;;;;;;;;4702243;28;19925;-49
2022/01/27 10:25:21;;;;;;;;;;;;;;;;;;4743417;28;19918;-53
2022/01/27 10:27:57;;;;;;;;;;;;;;;;;;4739485;28;20575;-52
2022/01/27 10:32:50;;;;;;;;;;;;;;;;;;4792587;28;19922;-49
2022/01/27 10:35:15;;;;;;;;;;;;;;;;;;4799975;28;20309;-52
2022/01/27 10:37:40;;;;;;;;;;;;;;;;;;4787439;28;20650;-52
2022/01/27 10:40:05;;;;;;;;;;;;;;;;;;4782909;28;21877;-51
2022/01/27 10:42:30;;;;;;;;;;;;;;;;;;4794770;28;19922;-53
2022/01/27 10:44:56;;;;;;;;;;;;;;;;;;4787616;28;19922;-51
2022/01/27 10:47:23;;;;;;;;;;;;;;;;;;4807062;28;19921;-49
2022/01/27 10:49:54;;;;;;;;;;;;;;;;;;4785382;28;19925;-54
2022/01/27 10:52:27;;;;;;;;;;;;;;;;;;4764405;28;20223;-53
2022/01/27 10:54:52;;;;;;;;;;;;;;;;;;4801356;28;21725;-53
2022/01/27 10:57:17;;;;;;;;;;;;;;;;;;4792530;28;20655;-49
2022/01/27 10:59:42;;;;;;;;;;;;;;;;;;4762926;28;19924;-52
2022/01/27 11:02:07;;;;;;;;;;;;;;;;;;4748560;28;20606;-54
2022/01/27 11:04:33;;;;;;;;;;;;;;;;;;4737914;28;19926;-52
2022/01/27 11:06:59;;;;;;;;;;;;;;;;;;4749218;23;21804;-55
2022/01/27 11:09:24;;;;;;;;;;;;;;;;;;4764036;28;21998;-53
2022/01/27 11:11:49;;;;;;;;;;;;;;;;;;4757710;28;20158;-50
2022/01/27 11:14:15;;;;;;;;;;;;;;;;;;4791267;28;21189;-51
2022/01/27 11:16:43;;;;;;;;;;;;;;;;;;4849161;28;19941;-53
2022/01/27 11:21:41;;;;;;;;;;;;;;;;;;4864174;28;21457;-49
2022/01/27 11:24:14;;;;;;;;;;;;;;;;;;4869893;28;19924;-50
2022/01/27 11:26:40;;;;;;;;;;;;;;;;;;4857341;28;19922;-50
2022/01/27 11:29:05;;;;;;;;;;;;;;;;;;4862899;28;20498;-51
2022/01/27 11:31:30;;;;;;;;;;;;;;;;;;4879255;28;20067;-51
2022/01/27 11:33:56;;;;;;;;;;;;;;;;;;4871924;28;23620;-52
2022/01/27 11:36:24;;;;;;;;;;;;;;;;;;4849406;28;20553;-51
2022/01/27 11:38:49;;;;;;;;;;;;;;;;;;4779898;28;20389;-50
2022/01/27 11:41:14;;;;;;;;;;;;;;;;;;4815122;28;20617;-51
2022/01/27 11:43:39;;;;;;;;;;;;;;;;;;4826163;28;22035;-52
2022/01/27 11:46:04;;;;;;;;;;;;;;;;;;4831374;28;22242;-51
2022/01/27 11:48:30;;;;;;;;;;;;;;;;;;4861568;28;19917;-50
2022/01/27 11:50:57;;;;;;;;;;;;;;;;;;4848023;28;20174;-50
2022/01/27 11:53:22;;;;;;;;;;;;;;;;;;4773080;28;19917;-54
2022/01/27 11:55:47;;;;;;;;;;;;;;;;;;4764452;28;22578;-52
2022/01/27 11:58:12;;;;;;;;;;;;;;;;;;4717952;28;20523;-52
2022/01/27 12:00:39;;;;;;;;;;;;;;;;;;4754069;28;21593;-50
2022/01/27 12:03:05;;;;;;;;;;;;;;;;;;4793075;28;19917;-54
2022/01/27 12:05:31;;;;;;;;;;;;;;;;;;4817356;28;19996;-49
2022/01/27 12:07:56;;;;;;;;;;;;;;;;;;4845291;28;19924;-53
2022/01/27 12:10:21;;;;;;;;;;;;;;;;;;4863316;28;23014;-49
2022/01/27 12:12:46;;;;;;;;;;;;;;;;;;4848644;28;20537;-50
2022/01/27 12:15:12;;;;;;;;;;;;;;;;;;4842462;28;24038;-52
2022/01/27 12:17:37;;;;;;;;;;;;;;;;;;4855999;28;19917;-54
2022/01/27 12:20:02;;;;;;;;;;;;;;;;;;4826807;28;19935;-53
2022/01/27 12:22:29;;;;;;;;;;;;;;;;;;4863796;28;22628;-51
2022/01/27 12:24:54;;;;;;;;;;;;;;;;;;4825187;28;20851;-52
2022/01/27 12:27:19;;;;;;;;;;;;;;;;;;4801540;28;19955;-52
2022/01/27 12:29:44;;;;;;;;;;;;;;;;;;4742639;28;19975;-52
2022/01/27 12:32:09;;;;;;;;;;;;;;;;;;4785390;28;20636;-49
2022/01/27 12:34:35;;;;;;;;;;;;;;;;;;4824551;28;21762;-54
2022/01/27 12:37:00;;;;;;;;;;;;;;;;;;4855303;28;19916;-53
2022/01/27 12:39:25;;;;;;;;;;;;;;;;;;4870818;28;19925;-50
2022/01/27 12:41:50;;;;;;;;;;;;;;;;;;4867348;28;20636;-54
2022/01/27 12:44:15;;;;;;;;;;;;;;;;;;4859697;28;21380;-51
2022/01/27 12:46:40;;;;;;;;;;;;;;;;;;4874579;28;19932;-52
2022/01/27 12:49:05;;;;;;;;;;;;;;;;;;4889098;28;20491;-52
2022/01/27 12:51:39;;;;;;;;;;;;;;;;;;4886422;28;19917;-51
2022/01/27 12:54:04;;;;;;;;;;;;;;;;;;4887805;28;22552;-54
2022/01/27 12:56:29;;;;;;;;;;;;;;;;;;4890005;28;19917;-54
2022/01/27 12:58:55;;;;;;;;;;;;;;;;;;4850822;28;20792;-55
2022/01/27 13:01:20;;;;;;;;;;;;;;;;;;4831070;28;20010;-50
2022/01/27 13:03:45;;;;;;;;;;;;;;;;;;4863013;28;19994;-52
2022/01/27 13:06:11;;;;;;;;;;;;;;;;;;4838234;28;21626;-51
2022/01/27 13:08:41;;;;;;;;;;;;;;;;;;4825793;28;20497;-52
2022/01/27 13:11:11;;;;;;;;;;;;;;;;;;4852023;28;21131;-53
2022/01/27 13:13:38;;;;;;;;;;;;;;;;;;4837306;28;19978;-53
2022/01/27 13:16:04;;;;;;;;;;;;;;;;;;4819556;28;19921;-50
2022/01/27 13:18:43;;;;;;;;;;;;;;;;;;4774848;28;20596;-51
2022/01/27 13:21:08;;;;;;;;;;;;;;;;;;4813682;28;22668;-52
2022/01/27 13:23:36;;;;;;;;;;;;;;;;;;4811049;28;21795;-52
2022/01/27 13:26:04;;;;;;;;;;;;;;;;;;4850159;28;20528;-51
2022/01/27 13:28:29;;;;;;;;;;;;;;;;;;4865877;28;21339;-51
2022/01/27 13:30:54;;;;;;;;;;;;;;;;;;4858203;28;20550;-52
2022/01/27 13:33:19;;;;;;;;;;;;;;;;;;4866165;28;20349;-51
2022/01/27 13:35:45;;;;;;;;;;;;;;;;;;4854931;28;19917;-54
2022/01/27 13:38:17;;;;;;;;;;;;;;;;;;4833015;28;19917;-51
2022/01/27 13:43:26;;;;;;;;;;;;;;;;;;4871771;28;20040;-49
2022/01/27 13:45:51;;;;;;;;;;;;;;;;;;4872982;28;20240;-49
2022/01/27 13:48:16;;;;;;;;;;;;;;;;;;4857912;28;20063;-50
2022/01/27 13:50:42;;;;;;;;;;;;;;;;;;4864518;28;19921;-51
2022/01/27 13:53:07;;;;;;;;;;;;;;;;;;4877531;28;19964;-51
2022/01/27 13:55:32;;;;;;;;;;;;;;;;;;4869175;28;22200;-51
2022/01/27 13:58:00;;;;;;;;;;;;;;;;;;4867281;28;20462;-49
2022/01/27 14:00:25;;;;;;;;;;;;;;;;;;4877524;28;20517;-52
2022/01/27 14:02:53;;;;;;;;;;;;;;;;;;4868327;28;20864;-49
2022/01/27 14:05:18;;;;;;;;;;;;;;;;;;4872720;28;19917;-51
2022/01/27 14:07:44;;;;;;;;;;;;;;;;;;4790183;28;20860;-51
2022/01/27 14:10:09;;;;;;;;;;;;;;;;;;4796869;28;19920;-51
2022/01/27 14:12:34;;;;;;;;;;;;;;;;;;4820388;28;21625;-53
2022/01/27 14:14:59;;;;;;;;;;;;;;;;;;4833680;28;22803;-51
2022/01/27 14:17:25;;;;;;;;;;;;;;;;;;4876422;28;19955;-51
2022/01/27 14:19:50;;;;;;;;;;;;;;;;;;4915783;28;22985;-53
2022/01/27 14:22:16;;;;;;;;;;;;;;;;;;4914119;28;20043;-50
2022/01/27 14:24:43;;;;;;;;;;;;;;;;;;4909780;28;19917;-48
2022/01/27 14:27:09;;;;;;;;;;;;;;;;;;4950103;28;19940;-49
2022/01/27 14:29:34;;;;;;;;;;;;;;;;;;4947558;28;19917;-49
2022/01/27 14:31:59;;;;;;;;;;;;;;;;;;4948145;28;20560;-52
2022/01/27 14:34:24;;;;;;;;;;;;;;;;;;4948730;28;21073;-49
2022/01/27 14:36:49;;;;;;;;;;;;;;;;;;4953570;28;19939;-49
2022/01/27 14:39:15;;;;;;;;;;;;;;;;;;4953284;28;19948;-54
2022/01/27 14:41:41;;;;;;;;;;;;;;;;;;4949421;28;19917;-51
2022/01/27 14:44:06;;;;;;;;;;;;;;;;;;4951725;28;19917;-53
2022/01/27 14:46:40;;;;;;;;;;;;;;;;;;4943111;28;19932;-49
2022/01/27 14:49:07;;;;;;;;;;;;;;;;;;4948923;28;19923;-49
2022/01/27 14:51:34;;;;;;;;;;;;;;;;;;4928010;28;19924;-52
2022/01/27 14:53:59;;;;;;;;;;;;;;;;;;4927460;28;20654;-49
2022/01/27 14:56:24;;;;;;;;;;;;;;;;;;4927336;28;19913;-52
2022/01/27 14:58:51;;;;;;;;;;;;;;;;;;4900135;28;20517;-49
2022/01/27 15:01:16;;;;;;;;;;;;;;;;;;4916057;28;23194;-48
2022/01/27 15:03:41;;;;;;;;;;;;;;;;;;4950598;28;19925;-50
2022/01/27 15:06:06;;;;;;;;;;;;;;;;;;4963539;28;19928;-50
2022/01/27 15:08:31;;;;;;;;;;;;;;;;;;4986123;28;20016;-52
2022/01/27 15:10:56;;;;;;;;;;;;;;;;;;4972038;28;19971;-49
2022/01/27 15:13:23;;;;;;;;;;;;;;;;;;4982871;28;21456;-52
2022/01/27 15:18:55;;;;;;;;;;;;;;;;;;4975390;28;19970;-49
2022/01/27 15:21:20;;;;;;;;;;;;;;;;;;4973115;28;19916;-49
2022/01/27 15:23:46;;;;;;;;;;;;;;;;;;4967818;28;20422;-52
2022/01/27 15:26:12;;;;;;;;;;;;;;;;;;4981056;28;19917;-50
2022/01/27 15:28:37;;;;;;;;;;;;;;;;;;4970996;28;22620;-51
2022/01/27 15:31:02;;;;;;;;;;;;;;;;;;4970930;28;19987;-52
2022/01/27 15:33:30;;;;;;;;;;;;;;;;;;4986975;28;20131;-51
2022/01/27 15:35:55;;;;;;;;;;;;;;;;;;5008077;28;21344;-50
2022/01/27 15:38:22;;;;;;;;;;;;;;;;;;5010218;28;19908;-50
2022/01/27 15:40:47;;;;;;;;;;;;;;;;;;5011115;28;19940;-50
2022/01/27 15:43:12;;;;;;;;;;;;;;;;;;5006658;28;20348;-51
2022/01/27 15:45:37;;;;;;;;;;;;;;;;;;5004020;28;19920;-50
2022/01/27 15:48:02;;;;;;;;;;;;;;;;;;4980600;28;19959;-52
2022/01/27 15:50:27;;;;;;;;;;;;;;;;;;4962025;28;20375;-52
2022/01/27 15:52:52;;;;;;;;;;;;;;;;;;4987733;28;20258;-51
2022/01/27 15:55:18;;;;;;;;;;;;;;;;;;5014088;28;19972;-49
2022/01/27 15:57:43;;;;;;;;;;;;;;;;;;5010271;28;19999;-50
2022/01/27 16:00:08;;;;;;;;;;;;;;;;;;5010952;28;20607;-49
2022/01/27 16:02:34;;;;;;;;;;;;;;;;;;5014874;28;19963;-51
2022/01/27 16:04:59;;;;;;;;;;;;;;;;;;5024760;28;19924;-49
2022/01/27 16:07:24;;;;;;;;;;;;;;;;;;5024656;28;19925;-52
2022/01/27 16:09:49;;;;;;;;;;;;;;;;;;5030626;28;19955;-51
2022/01/27 16:12:15;;;;;;;;;;;;;;;;;;5029841;28;19916;-50
2022/01/27 16:14:40;;;;;;;;;;;;;;;;;;5033135;28;19913;-50
2022/01/27 16:17:06;;;;;;;;;;;;;;;;;;5028941;28;21476;-52
2022/01/27 16:19:31;;;;;;;;;;;;;;;;;;5029481;28;19940;-50
2022/01/27 16:21:56;;;;;;;;;;;;;;;;;;5031982;28;19913;-50
2022/01/27 16:24:21;;;;;;;;;;;;;;;;;;5034310;28;19909;-49
2022/01/27 16:26:46;;;;;;;;;;;;;;;;;;5034799;28;19913;-49
2022/01/27 16:29:11;;;;;;;;;;;;;;;;;;5031887;28;20319;-52
2022/01/27 16:31:37;;;;;;;;;;;;;;;;;;5033777;28;20371;-49
2022/01/27 16:34:02;;;;;;;;;;;;;;;;;;5035809;28;19992;-47
2022/01/27 16:36:27;;;;;;;;;;;;;;;;;;5035231;28;19916;-48
2022/01/27 16:38:52;;;;;;;;;;;;;;;;;;5033527;28;19917;-48
2022/01/27 16:41:17;;;;;;;;;;;;;;;;;;5033152;28;19909;-48
2022/01/27 16:43:44;;;;;;;;;;;;;;;;;;5035404;28;20376;-48
2022/01/27 16:46:09;;;;;;;;;;;;;;;;;;5031601;28;20375;-49
2022/01/27 16:48:34;;;;;;;;;;;;;;;;;;5033580;28;19913;-50
2022/01/27 16:51:00;;;;;;;;;;;;;;;;;;5037303;28;19920;-50
2022/01/27 16:53:25;;;;;;;;;;;;;;;;;;5037198;28;20260;-49
2022/01/27 16:55:51;;;;;;;;;;;;;;;;;;5036803;28;19911;-48
2022/01/27 16:58:16;;;;;;;;;;;;;;;;;;5036132;28;19948;-48
2022/01/27 17:00:41;;;;;;;;;;;;;;;;;;5036090;28;20296;-49
2022/01/27 17:03:06;;;;;;;;;;;;;;;;;;5036778;28;19905;-48
2022/01/27 17:05:31;;;;;;;;;;;;;;;;;;5052475;28;19905;-48
2022/01/27 17:07:56;;;;;;;;;;;;;;;;;;5040011;28;19917;-49
2022/01/27 17:10:21;;;;;;;;;;;;;;;;;;5036842;28;19909;-49
2022/01/27 17:12:47;;;;;;;;;;;;;;;;;;5036736;28;19912;-49
2022/01/27 17:15:12;;;;;;;;;;;;;;;;;;5036796;28;20286;-50
2022/01/27 17:17:37;;;;;;;;;;;;;;;;;;5036140;28;19912;-48
2022/01/27 17:20:04;;;;;;;;;;;;;;;;;;5035949;28;19916;-48
2022/01/27 17:22:30;;;;;;;;;;;;;;;;;;5035203;28;19909;-51
2022/01/27 17:24:55;;;;;;;;;;;;;;;;;;5036728;28;19909;-48
2022/01/27 17:27:20;;;;;;;;;;;;;;;;;;5036537;28;19915;-50